createdAt,value
2018-07-02T00:00:11.338Z,14.80
2018-07-02T00:02:40.361Z,14.70
2018-07-02T00:05:09.726Z,14.70
2018-07-02T00:07:38.729Z,14.70
2018-07-02T00:10:09.440Z,14.70
2018-07-02T00:12:38.468Z,14.60
2018-07-02T00:15:07.698Z,14.70
2018-07-02T00:17:36.698Z,14.70
2018-07-02T00:20:06.846Z,14.70
2018-07-02T00:22:35.841Z,14.60
2018-07-02T00:25:04.841Z,14.50
2018-07-02T00:27:33.873Z,14.40
2018-07-02T00:30:03.039Z,14.60
2018-07-02T00:32:32.021Z,14.60
2018-07-02T00:35:01.029Z,14.60
2018-07-02T00:37:30.017Z,14.50
2018-07-02T00:39:59.030Z,14.40
2018-07-02T00:42:28.046Z,14.50
2018-07-02T00:44:57.037Z,14.40
2018-07-02T00:47:26.025Z,14.30
2018-07-02T00:49:55.040Z,14.20
2018-07-02T00:52:24.195Z,14.00
2018-07-02T00:54:53.258Z,14.00
2018-07-02T00:57:22.350Z,14.00
2018-07-02T00:59:51.352Z,14.00
2018-07-02T01:02:20.550Z,14.10
2018-07-02T01:04:49.658Z,14.00
2018-07-02T01:07:18.646Z,13.80
2018-07-02T01:09:47.653Z,14.10
2018-07-02T01:12:16.658Z,14.00
2018-07-02T01:14:45.692Z,13.90
2018-07-02T01:17:14.686Z,13.70
2018-07-02T01:19:43.692Z,13.70
2018-07-02T01:22:12.784Z,13.60
2018-07-02T01:24:41.890Z,13.70
2018-07-02T01:27:10.889Z,13.80
2018-07-02T01:29:39.901Z,13.70
2018-07-02T01:32:08.902Z,13.60
2018-07-02T01:34:38.014Z,13.60
2018-07-02T01:37:07.001Z,13.70
2018-07-02T01:39:35.993Z,13.70
2018-07-02T01:42:04.989Z,13.60
2018-07-02T01:44:33.997Z,13.40
2018-07-02T01:47:02.993Z,13.30
2018-07-02T01:49:31.984Z,13.30
2018-07-02T01:52:00.976Z,13.20
2018-07-02T01:54:29.978Z,13.20
2018-07-02T01:56:58.973Z,13.20
2018-07-02T01:59:27.995Z,13.30
2018-07-02T02:01:57.006Z,13.40
2018-07-02T02:04:26.030Z,13.60
2018-07-02T02:06:55.305Z,13.30
2018-07-02T02:09:24.296Z,13.20
2018-07-02T02:11:53.374Z,13.10
2018-07-02T02:14:22.373Z,13.10
2018-07-02T02:16:51.373Z,13.00
2018-07-02T02:19:20.906Z,13.00
2018-07-02T02:21:49.889Z,12.90
2018-07-02T02:24:18.898Z,12.90
2018-07-02T02:26:47.914Z,12.90
2018-07-02T02:29:16.929Z,12.90
2018-07-02T02:31:45.941Z,13.00
2018-07-02T02:34:14.949Z,13.00
2018-07-02T02:36:44.046Z,12.90
2018-07-02T02:39:13.098Z,12.80
2018-07-02T02:41:42.126Z,12.70
2018-07-02T02:44:11.240Z,12.90
2018-07-02T02:46:40.221Z,12.90
2018-07-02T02:49:09.243Z,12.90
2018-07-02T02:51:38.251Z,12.80
2018-07-02T02:54:07.262Z,12.70
2018-07-02T02:56:36.261Z,12.60
2018-07-02T02:59:05.385Z,12.60
2018-07-02T03:01:34.449Z,12.90
2018-07-02T03:04:03.443Z,12.90
2018-07-02T03:06:32.439Z,13.00
2018-07-02T03:09:01.622Z,13.00
2018-07-02T03:11:30.615Z,12.90
2018-07-02T03:13:59.610Z,12.80
2018-07-02T03:16:28.606Z,12.70
2018-07-02T03:18:57.608Z,12.50
2018-07-02T03:21:26.603Z,12.50
2018-07-02T03:23:55.588Z,12.60
2018-07-02T03:26:24.567Z,12.50
2018-07-02T03:28:53.546Z,12.50
2018-07-02T03:31:22.539Z,12.40
2018-07-02T03:33:51.533Z,12.40
2018-07-02T03:36:20.629Z,12.40
2018-07-02T03:38:49.612Z,12.30
2018-07-02T03:41:18.619Z,12.30
2018-07-02T03:43:47.718Z,12.40
2018-07-02T03:46:16.726Z,12.50
2018-07-02T03:48:45.726Z,12.50
2018-07-02T03:51:14.721Z,12.40
2018-07-02T03:53:43.781Z,12.40
2018-07-02T03:56:12.767Z,12.40
2018-07-02T03:58:41.758Z,12.40
2018-07-02T04:01:10.830Z,12.50
2018-07-02T04:03:39.789Z,12.60
2018-07-02T04:06:08.787Z,12.70
2018-07-02T04:08:37.758Z,12.60
2018-07-02T04:11:06.766Z,12.70
2018-07-02T04:13:35.797Z,12.70
2018-07-02T04:16:04.882Z,12.70
2018-07-02T04:18:34.538Z,12.60
2018-07-02T04:21:03.541Z,12.70
2018-07-02T04:23:32.577Z,12.70
2018-07-02T04:26:01.732Z,12.70
2018-07-02T04:28:30.730Z,12.70
2018-07-02T04:30:59.722Z,12.80
2018-07-02T04:33:28.747Z,12.90
2018-07-02T04:35:57.743Z,13.20
2018-07-02T04:38:26.752Z,13.30
2018-07-02T04:40:55.973Z,13.40
2018-07-02T04:43:25.090Z,13.40
2018-07-02T04:45:54.737Z,13.40
2018-07-02T04:48:23.721Z,13.50
2018-07-02T04:50:52.736Z,13.60
2018-07-02T04:53:21.736Z,13.70
2018-07-02T04:55:51.016Z,13.80
2018-07-02T04:58:20.705Z,13.80
2018-07-02T05:00:49.740Z,13.70
2018-07-02T05:03:18.722Z,13.90
2018-07-02T05:05:47.717Z,13.80
2018-07-02T05:08:16.704Z,13.80
2018-07-02T05:10:45.706Z,13.90
2018-07-02T05:13:14.690Z,14.00
2018-07-02T05:15:43.739Z,14.10
2018-07-02T05:18:12.722Z,14.30
2018-07-02T05:20:41.763Z,14.30
2018-07-02T05:23:10.762Z,14.20
2018-07-02T05:25:39.742Z,14.30
2018-07-02T05:28:08.727Z,14.40
2018-07-02T05:30:37.711Z,14.50
2018-07-02T05:33:06.910Z,14.50
2018-07-02T05:35:35.918Z,14.80
2018-07-02T05:38:05.034Z,14.90
2018-07-02T05:40:34.006Z,14.90
2018-07-02T05:43:03.463Z,14.90
2018-07-02T05:45:32.468Z,14.90
2018-07-02T05:48:01.482Z,15.00
2018-07-02T05:50:30.494Z,15.00
2018-07-02T05:52:59.497Z,15.10
2018-07-02T05:55:28.518Z,15.20
2018-07-02T05:57:57.578Z,15.40
2018-07-02T06:00:26.775Z,15.50
2018-07-02T06:02:55.858Z,15.60
2018-07-02T06:05:24.896Z,15.70
2018-07-02T06:07:53.942Z,16.00
2018-07-02T06:10:22.874Z,16.10
2018-07-02T06:12:51.868Z,16.20
2018-07-02T06:15:20.858Z,16.20
2018-07-02T06:17:49.862Z,16.20
2018-07-02T06:20:18.890Z,16.30
2018-07-02T06:22:47.911Z,16.30
2018-07-02T06:25:16.910Z,16.60
2018-07-02T06:27:45.917Z,16.60
2018-07-02T06:30:14.910Z,16.80
2018-07-02T06:32:43.906Z,16.90
2018-07-02T06:35:12.901Z,17.00
2018-07-02T06:37:41.936Z,17.10
2018-07-02T06:40:10.912Z,17.40
2018-07-02T06:42:39.985Z,17.50
2018-07-02T06:45:09.005Z,17.30
2018-07-02T06:47:38.407Z,17.40
2018-07-02T06:50:07.398Z,17.40
2018-07-02T06:52:36.434Z,17.40
2018-07-02T06:55:05.657Z,17.40
2018-07-02T06:57:34.656Z,17.50
2018-07-02T07:00:03.718Z,17.70
2018-07-02T07:02:32.742Z,17.80
2018-07-02T07:05:01.750Z,17.80
2018-07-02T07:07:30.762Z,17.90
2018-07-02T07:09:59.783Z,17.80
2018-07-02T07:12:28.777Z,18.00
2018-07-02T07:14:57.778Z,18.10
2018-07-02T07:17:26.827Z,18.20
2018-07-02T07:19:55.841Z,18.20
2018-07-02T07:22:24.830Z,18.40
2018-07-02T07:24:53.818Z,18.50
2018-07-02T07:27:22.818Z,18.50
2018-07-02T07:29:51.806Z,18.60
2018-07-02T07:32:20.794Z,18.50
2018-07-02T07:34:49.782Z,18.50
2018-07-02T07:37:18.919Z,18.80
2018-07-02T07:39:47.898Z,19.10
2018-07-02T07:42:17.011Z,19.40
2018-07-02T07:44:46.031Z,19.40
2018-07-02T07:47:15.178Z,19.60
2018-07-02T07:49:44.257Z,19.70
2018-07-02T07:52:13.534Z,19.90
2018-07-02T07:54:42.529Z,19.90
2018-07-02T07:57:11.650Z,19.70
2018-07-02T07:59:40.779Z,19.80
2018-07-02T08:02:09.824Z,20.10
2018-07-02T08:04:38.866Z,20.30
2018-07-02T08:07:07.856Z,20.30
2018-07-02T08:09:36.849Z,20.20
2018-07-02T08:12:06.015Z,20.30
2018-07-02T08:14:35.015Z,20.50
2018-07-02T08:17:04.150Z,20.30
2018-07-02T08:19:33.154Z,20.30
2018-07-02T08:22:02.261Z,20.30
2018-07-02T08:24:31.386Z,20.40
2018-07-02T08:27:00.371Z,20.60
2018-07-02T08:29:29.386Z,20.80
2018-07-02T08:31:58.528Z,20.90
2018-07-02T08:34:27.725Z,20.90
2018-07-02T08:36:56.858Z,20.60
2018-07-02T08:39:25.885Z,20.60
2018-07-02T08:41:54.891Z,20.80
2018-07-02T08:44:23.970Z,20.90
2018-07-02T08:46:53.145Z,21.10
2018-07-02T08:49:22.062Z,21.30
2018-07-02T08:51:51.054Z,21.50
2018-07-02T08:54:20.037Z,21.50
2018-07-02T08:56:49.015Z,21.60
2018-07-02T08:59:18.014Z,21.80
2018-07-02T09:01:46.992Z,21.90
2018-07-02T09:04:15.971Z,22.00
2018-07-02T09:06:44.992Z,21.90
2018-07-02T09:09:14.614Z,21.80
2018-07-02T09:11:43.601Z,21.80
2018-07-02T09:14:12.615Z,21.90
2018-07-02T09:16:41.611Z,21.70
2018-07-02T09:19:10.623Z,21.80
2018-07-02T09:21:39.602Z,22.20
2018-07-02T09:24:08.587Z,22.30
2018-07-02T09:26:37.610Z,22.60
2018-07-02T09:29:06.602Z,22.40
2018-07-02T09:31:35.798Z,22.30
2018-07-02T09:34:05.020Z,22.40
2018-07-02T09:36:34.050Z,22.20
2018-07-02T09:39:03.226Z,22.10
2018-07-02T09:41:32.213Z,22.20
2018-07-02T09:44:01.210Z,22.50
2018-07-02T09:46:30.189Z,22.40
2018-07-02T09:48:59.182Z,22.50
2018-07-02T09:51:28.189Z,22.90
2018-07-02T09:53:57.487Z,23.00
2018-07-02T09:56:26.486Z,22.90
2018-07-02T09:58:55.810Z,22.80
2018-07-02T10:01:24.791Z,23.10
2018-07-02T10:03:53.779Z,23.00
2018-07-02T10:06:22.864Z,22.90
2018-07-02T10:08:51.873Z,23.10
2018-07-02T10:11:20.885Z,23.30
2018-07-02T10:13:49.878Z,23.10
2018-07-02T10:16:18.886Z,23.30
2018-07-02T10:18:47.879Z,23.20
2018-07-02T10:21:16.896Z,23.10
2018-07-02T10:23:45.892Z,23.40
2018-07-02T10:26:14.914Z,23.40
2018-07-02T10:28:44.152Z,23.50
2018-07-02T10:31:13.196Z,23.30
2018-07-02T10:33:42.146Z,23.10
2018-07-02T10:36:11.152Z,23.00
2018-07-02T10:38:40.222Z,22.80
2018-07-02T10:41:09.226Z,22.80
2018-07-02T10:43:38.226Z,22.90
2018-07-02T10:46:07.270Z,23.20
2018-07-02T10:48:37.704Z,23.10
2018-07-02T10:51:06.763Z,23.40
2018-07-02T10:53:35.903Z,23.70
2018-07-02T10:56:04.931Z,23.70
2018-07-02T10:58:35.060Z,23.80
2018-07-02T11:01:04.071Z,24.20
2018-07-02T11:03:38.544Z,24.30
2018-07-02T11:06:07.727Z,24.40
2018-07-02T11:08:36.712Z,24.30
2018-07-02T11:11:05.697Z,24.60
2018-07-02T11:13:34.710Z,24.60
2018-07-02T11:16:04.488Z,24.90
2018-07-02T11:18:34.095Z,25.00
2018-07-02T11:21:03.262Z,24.80
2018-07-02T11:23:33.510Z,25.10
2018-07-02T11:26:02.658Z,25.50
2018-07-02T11:28:31.675Z,26.30
2018-07-02T11:31:00.790Z,26.50
2018-07-02T11:33:29.931Z,26.20
2018-07-02T11:35:59.158Z,26.30
2018-07-02T11:38:28.181Z,26.30
2018-07-02T11:40:58.177Z,26.40
2018-07-02T11:43:27.169Z,27.00
2018-07-02T11:45:56.162Z,27.20
2018-07-02T11:48:26.433Z,27.30
2018-07-02T11:50:55.410Z,27.40
2018-07-02T11:53:24.630Z,27.70
2018-07-02T11:55:53.662Z,27.90
2018-07-02T11:58:23.335Z,27.60
2018-07-02T12:00:52.340Z,27.70
2018-07-02T12:03:21.368Z,28.30
2018-07-02T12:05:50.386Z,28.70
2018-07-02T12:08:19.494Z,28.60
2018-07-02T12:10:48.503Z,28.50
2018-07-02T12:13:17.486Z,28.20
2018-07-02T12:15:46.677Z,28.70
2018-07-02T12:18:15.830Z,29.10
2018-07-02T12:20:44.837Z,28.60
2018-07-02T12:23:13.934Z,28.30
2018-07-02T12:25:43.045Z,28.30
2018-07-02T12:28:13.287Z,28.50
2018-07-02T12:30:42.423Z,28.70
2018-07-02T12:33:11.420Z,29.50
2018-07-02T12:35:40.442Z,29.70
2018-07-02T12:38:09.438Z,29.60
2018-07-02T12:40:38.464Z,29.70
2018-07-02T12:43:07.453Z,30.10
2018-07-02T12:45:36.560Z,30.40
2018-07-02T12:48:05.678Z,30.20
2018-07-02T12:50:34.845Z,30.10
2018-07-02T12:53:04.290Z,30.50
2018-07-02T12:55:33.322Z,30.90
2018-07-02T12:58:03.677Z,31.10
2018-07-02T13:00:32.702Z,31.20
2018-07-02T13:03:01.929Z,30.90
2018-07-02T13:05:30.932Z,30.80
2018-07-02T13:07:59.929Z,30.90
2018-07-02T13:10:28.986Z,30.50
2018-07-02T13:13:00.314Z,30.20
2018-07-02T13:15:29.297Z,30.00
2018-07-02T13:17:58.582Z,30.00
2018-07-02T13:20:27.678Z,29.80
2018-07-02T13:22:56.718Z,29.70
2018-07-02T13:25:26.113Z,30.20
2018-07-02T13:27:55.429Z,30.40
2018-07-02T13:30:24.530Z,30.70
2018-07-02T13:32:53.570Z,30.30
2018-07-02T13:35:22.610Z,30.40
2018-07-02T13:37:51.710Z,30.00
2018-07-02T13:40:21.046Z,28.70
2018-07-02T13:42:50.034Z,27.90
2018-07-02T13:45:19.182Z,27.40
2018-07-02T13:47:48.217Z,27.00
2018-07-02T13:50:17.410Z,26.60
2018-07-02T13:52:46.406Z,26.20
2018-07-02T13:55:15.396Z,26.00
2018-07-02T13:57:44.488Z,25.70
2018-07-02T14:00:13.639Z,25.70
2018-07-02T14:02:42.591Z,25.70
2018-07-02T14:05:11.710Z,25.50
2018-07-02T14:07:40.870Z,25.40
2018-07-02T14:10:09.878Z,25.20
2018-07-02T14:12:38.861Z,25.30
2018-07-02T14:15:08.637Z,25.50
2018-07-02T14:17:37.678Z,25.40
2018-07-02T14:20:06.890Z,25.30
2018-07-02T14:22:35.879Z,25.40
2018-07-02T14:25:05.018Z,25.20
2018-07-02T14:27:34.006Z,25.30
2018-07-02T14:30:03.006Z,25.20
2018-07-02T14:32:33.825Z,25.30
2018-07-02T14:35:02.931Z,25.00
2018-07-02T14:37:31.969Z,25.00
2018-07-02T14:40:00.951Z,25.20
2018-07-02T14:42:30.500Z,24.90
2018-07-02T14:44:59.832Z,24.90
2018-07-02T14:47:28.762Z,25.10
2018-07-02T14:49:58.735Z,25.30
2018-07-02T14:52:28.116Z,25.30
2018-07-02T14:54:57.351Z,25.30
2018-07-02T14:57:26.581Z,25.30
2018-07-02T14:59:55.578Z,25.40
2018-07-02T15:02:24.686Z,25.40
2018-07-02T15:04:53.912Z,25.20
2018-07-02T15:07:22.899Z,25.20
2018-07-02T15:09:51.918Z,25.40
2018-07-02T15:12:22.834Z,25.50
2018-07-02T15:14:51.950Z,25.60
2018-07-02T15:17:20.975Z,25.60
2018-07-02T15:19:49.982Z,25.50
2018-07-02T15:22:21.653Z,25.50
2018-07-02T15:24:51.037Z,25.50
2018-07-02T15:27:20.221Z,25.20
2018-07-02T15:29:49.217Z,25.40
2018-07-02T15:32:18.895Z,25.60
2018-07-02T15:34:48.170Z,25.60
2018-07-02T15:37:17.433Z,25.60
2018-07-02T15:39:49.116Z,25.40
2018-07-02T15:42:18.157Z,25.30
2018-07-02T15:44:48.297Z,25.10
2018-07-02T15:47:17.327Z,25.00
2018-07-02T15:49:47.282Z,24.90
2018-07-02T15:52:18.930Z,24.80
2018-07-02T15:54:47.967Z,25.00
2018-07-02T15:57:17.715Z,24.90
2018-07-02T15:59:47.042Z,24.80
2018-07-02T16:02:17.082Z,24.90
2018-07-02T16:04:46.543Z,25.00
2018-07-02T16:07:16.314Z,24.90
2018-07-02T16:09:47.814Z,24.90
2018-07-02T16:12:16.930Z,25.10
2018-07-02T16:14:45.909Z,25.20
2018-07-02T16:17:14.936Z,25.40
2018-07-02T16:19:48.274Z,25.30
2018-07-02T16:22:17.282Z,25.40
2018-07-02T16:24:47.554Z,25.40
2018-07-02T16:27:16.542Z,25.50
2018-07-02T16:29:45.551Z,25.80
2018-07-02T16:32:14.784Z,25.80
2018-07-02T16:34:43.959Z,26.00
2018-07-02T16:37:13.062Z,26.10
2018-07-02T16:39:42.124Z,26.00
2018-07-02T16:42:11.196Z,26.10
2018-07-02T16:44:40.294Z,26.30
2018-07-02T16:47:09.303Z,26.20
2018-07-02T16:49:38.302Z,26.50
2018-07-02T16:52:07.334Z,26.40
2018-07-02T16:54:36.324Z,26.40
2018-07-02T16:57:05.318Z,26.30
2018-07-02T16:59:34.317Z,26.10
2018-07-02T17:02:03.942Z,25.90
2018-07-02T17:04:32.981Z,25.80
2018-07-02T17:07:01.950Z,25.90
2018-07-02T17:09:31.086Z,25.70
2018-07-02T17:12:00.120Z,25.60
2018-07-02T17:14:29.226Z,25.40
2018-07-02T17:16:58.365Z,25.10
2018-07-02T17:19:27.381Z,24.90
2018-07-02T17:21:57.003Z,24.90
2018-07-02T17:24:26.049Z,24.80
2018-07-02T17:26:55.058Z,24.60
2018-07-02T17:29:24.121Z,24.70
2018-07-02T17:31:53.355Z,24.60
2018-07-02T17:34:22.421Z,24.40
2018-07-02T17:36:51.378Z,24.20
2018-07-02T17:39:20.419Z,24.00
2018-07-02T17:41:49.689Z,24.00
2018-07-02T17:44:18.782Z,24.10
2018-07-02T17:46:47.754Z,23.70
2018-07-02T17:49:16.877Z,23.70
2018-07-02T17:51:45.870Z,23.60
2018-07-02T17:54:15.171Z,23.50
2018-07-02T17:56:44.206Z,23.30
2018-07-02T17:59:14.368Z,23.30
2018-07-02T18:01:48.590Z,23.20
2018-07-02T18:04:17.626Z,23.30
2018-07-02T18:06:47.527Z,23.20
2018-07-02T18:09:16.784Z,23.00
2018-07-02T18:11:45.968Z,23.00
2018-07-02T18:14:15.204Z,22.90
2018-07-02T18:16:44.370Z,23.00
2018-07-02T18:19:13.626Z,22.80
2018-07-02T18:21:42.874Z,22.50
2018-07-02T18:24:12.058Z,22.50
2018-07-02T18:26:41.210Z,22.40
2018-07-02T18:29:10.426Z,22.40
2018-07-02T18:31:39.632Z,22.30
2018-07-02T18:34:08.890Z,22.10
2018-07-02T18:36:38.113Z,22.10
2018-07-02T18:39:10.827Z,22.00
2018-07-02T18:41:40.162Z,22.00
2018-07-02T18:44:09.540Z,21.90
2018-07-02T18:46:39.133Z,21.80
2018-07-02T18:49:08.357Z,21.70
2018-07-02T18:51:37.478Z,21.60
2018-07-02T18:54:06.375Z,21.60
2018-07-02T18:56:35.667Z,21.70
2018-07-02T18:59:04.857Z,21.50
2018-07-02T19:01:34.203Z,21.40
2018-07-02T19:04:03.529Z,21.30
2018-07-02T19:06:33.609Z,21.30
2018-07-02T19:09:02.830Z,21.30
2018-07-02T19:11:32.023Z,21.20
2018-07-02T19:14:01.194Z,21.20
2018-07-02T19:16:30.439Z,21.20
2018-07-02T19:19:00.111Z,21.10
2018-07-02T19:21:29.182Z,21.00
2018-07-02T19:23:58.390Z,20.90
2018-07-02T19:26:27.729Z,20.80
2018-07-02T19:28:56.914Z,20.90
2018-07-02T19:31:25.976Z,20.90
2018-07-02T19:33:55.927Z,20.90
2018-07-02T19:36:26.007Z,20.80
2018-07-02T19:38:55.921Z,20.70
2018-07-02T19:41:25.987Z,20.60
2018-07-02T19:43:56.046Z,20.50
2018-07-02T19:46:26.019Z,20.50
2018-07-02T19:48:55.994Z,20.50
2018-07-02T19:51:26.021Z,20.50
2018-07-02T19:53:55.950Z,20.30
2018-07-02T19:56:26.078Z,20.20
2018-07-02T19:58:56.173Z,20.20
2018-07-02T20:01:26.158Z,20.50
2018-07-02T20:03:56.902Z,20.70
2018-07-02T20:06:26.835Z,20.50
2018-07-02T20:08:56.222Z,20.20
2018-07-02T20:11:26.550Z,20.10
2018-07-02T20:13:56.362Z,20.00
2018-07-02T20:16:26.421Z,20.20
2018-07-02T20:18:56.416Z,20.20
2018-07-02T20:21:26.314Z,20.30
2018-07-02T20:23:56.526Z,20.40
2018-07-02T20:26:26.470Z,20.30
2018-07-02T20:28:56.454Z,20.30
2018-07-02T20:31:26.202Z,20.10
2018-07-02T20:33:56.273Z,19.90
2018-07-02T20:36:28.044Z,19.60
2018-07-02T20:38:57.496Z,19.50
2018-07-02T20:41:26.634Z,19.50
2018-07-02T20:43:58.719Z,19.70
2018-07-02T20:46:27.918Z,19.80
2018-07-02T20:48:57.146Z,19.60
2018-07-02T20:51:26.575Z,19.70
2018-07-02T20:53:56.643Z,19.80
2018-07-02T20:56:26.862Z,19.50
2018-07-02T20:58:56.673Z,19.50
2018-07-02T21:01:26.815Z,19.60
2018-07-02T21:03:56.513Z,19.30
2018-07-02T21:06:26.292Z,19.60
2018-07-02T21:08:55.529Z,19.50
2018-07-02T21:11:24.702Z,19.10
2018-07-02T21:13:53.886Z,18.90
2018-07-02T21:16:24.334Z,19.20
2018-07-02T21:18:53.548Z,19.30
2018-07-02T21:21:23.611Z,19.30
2018-07-02T21:23:52.702Z,19.10
2018-07-02T21:26:21.870Z,18.80
2018-07-02T21:28:50.982Z,18.60
2018-07-02T21:31:20.095Z,19.00
2018-07-02T21:33:49.350Z,19.20
2018-07-02T21:36:18.567Z,18.80
2018-07-02T21:38:47.847Z,18.70
2018-07-02T21:41:16.975Z,18.50
2018-07-02T21:43:46.147Z,18.40
2018-07-02T21:46:15.290Z,18.40
2018-07-02T21:48:44.474Z,18.40
2018-07-02T21:51:13.558Z,18.40
2018-07-02T21:53:42.785Z,18.40
2018-07-02T21:56:11.866Z,18.40
2018-07-02T21:58:41.078Z,18.30
2018-07-02T22:01:10.119Z,18.30
2018-07-02T22:03:39.291Z,18.30
2018-07-02T22:06:08.548Z,18.30
2018-07-02T22:08:37.694Z,18.20
2018-07-02T22:11:06.820Z,18.10
2018-07-02T22:13:36.014Z,18.10
2018-07-02T22:16:05.780Z,18.10
2018-07-02T22:18:34.991Z,18.20
2018-07-02T22:21:04.089Z,18.10
2018-07-02T22:23:33.242Z,18.20
2018-07-02T22:26:02.448Z,18.20
2018-07-02T22:28:31.562Z,18.20
2018-07-02T22:31:00.804Z,18.20
2018-07-02T22:33:29.994Z,18.10
2018-07-02T22:35:59.261Z,18.10
2018-07-02T22:38:29.082Z,18.00
2018-07-02T22:40:58.263Z,18.10
2018-07-02T22:43:28.003Z,18.10
2018-07-02T22:45:57.882Z,18.10
2018-07-02T22:48:27.958Z,18.10
2018-07-02T22:50:57.863Z,18.00
2018-07-02T22:53:27.785Z,18.10
2018-07-02T22:56:00.993Z,18.10
2018-07-02T22:58:30.190Z,18.10
2018-07-02T23:01:00.142Z,18.00
2018-07-02T23:03:29.055Z,18.00
2018-07-02T23:05:58.167Z,18.00
2018-07-02T23:08:28.327Z,17.90
2018-07-02T23:10:58.250Z,17.90
2018-07-02T23:13:28.226Z,17.90
2018-07-02T23:16:04.042Z,17.90
2018-07-02T23:18:34.050Z,17.90
2018-07-02T23:21:03.110Z,17.90
2018-07-02T23:23:32.325Z,17.90
2018-07-02T23:26:01.511Z,17.80
2018-07-02T23:28:30.662Z,17.80
2018-07-02T23:30:59.787Z,17.80
2018-07-02T23:33:28.907Z,18.00
2018-07-02T23:35:58.462Z,18.20
2018-07-02T23:38:28.628Z,17.90
2018-07-02T23:40:58.510Z,17.90
2018-07-02T23:43:28.797Z,17.80
2018-07-02T23:45:58.512Z,17.80
2018-07-02T23:48:28.497Z,17.60
2018-07-02T23:50:58.466Z,17.40
2018-07-02T23:53:28.607Z,17.30
2018-07-02T23:55:58.634Z,17.20
2018-07-02T23:58:27.831Z,17.10
